Terminal Aerodrome Forecast
Issued by NWS Central Illinois

Home | Current Version | Previous Version | Text Only | Print | Product List | Glossary On
Versions: 1 2 3 4 5 6 7 8 9 10 11 12 13 14 15 16 17
000
FTUS43 KILX 280500
TAFPIA
TAF
KPIA 280540Z 2806/0106 VRB03KT P6SM BKN250
     FM280800 VRB03KT P6SM BKN100
     FM281400 13005KT P6SM BKN060
     FM282300 11005KT 2SM -SN BR OVC015
     FM010100 13006KT 1SM -SN BR OVC008=

USA.gov is the U.S. government's official web portal to all federal, state and local government web resources and services.